createdAt,value
2023-05-19T00:00:15.732Z,100662.40
2023-05-19T00:00:38.051Z,100660.54
2023-05-19T00:01:00.658Z,100661.44
2023-05-19T00:01:22.638Z,100657.02
2023-05-19T00:01:45.582Z,100660.86
2023-05-19T00:02:09.511Z,100657.34
2023-05-19T00:02:33.938Z,100662.37
2023-05-19T00:02:56.570Z,100661.17
2023-05-19T00:03:21.917Z,100660.84
2023-05-19T00:03:52.645Z,100660.39
2023-05-19T00:04:15.561Z,100659.67
2023-05-19T00:04:37.962Z,100661.15
2023-05-19T00:05:02.155Z,100656.91
2023-05-19T00:05:25.169Z,100658.44
2023-05-19T00:05:47.110Z,100661.31
2023-05-19T00:06:09.238Z,100659.96
2023-05-19T00:06:32.005Z,100656.77
2023-05-19T00:06:53.896Z,100660.60
2023-05-19T00:07:17.606Z,100659.54
2023-05-19T00:07:39.546Z,100658.01
2023-05-19T00:08:01.759Z,100655.16
2023-05-19T00:08:24.959Z,100658.54
2023-05-19T00:08:46.792Z,100656.59
2023-05-19T00:09:09.466Z,100653.96
2023-05-19T00:09:31.536Z,100656.67
2023-05-19T00:09:53.638Z,100656.06
2023-05-19T00:10:16.281Z,100658.17
2023-05-19T00:10:38.791Z,100655.52
2023-05-19T00:11:01.353Z,100658.41
2023-05-19T00:11:24.636Z,100656.64
2023-05-19T00:11:46.590Z,100654.95
2023-05-19T00:12:10.818Z,100655.48
2023-05-19T00:12:32.820Z,100656.08
2023-05-19T00:12:54.842Z,100657.35
2023-05-19T00:13:16.798Z,100655.21
2023-05-19T00:13:38.786Z,100657.02
2023-05-19T00:14:00.787Z,100657.48
2023-05-19T00:14:22.620Z,100656.77
2023-05-19T00:14:44.654Z,100657.10
2023-05-19T00:15:07.509Z,100656.98
2023-05-19T00:15:29.650Z,100656.05
2023-05-19T00:15:51.873Z,100656.77
2023-05-19T00:16:14.023Z,100658.71
2023-05-19T00:16:36.439Z,100655.66
2023-05-19T00:16:58.630Z,100653.98
2023-05-19T00:17:20.533Z,100654.88
2023-05-19T00:17:42.706Z,100655.11
2023-05-19T00:18:04.684Z,100656.33
2023-05-19T00:18:26.705Z,100656.88
2023-05-19T00:18:49.249Z,100653.91
2023-05-19T00:19:11.197Z,100654.87
2023-05-19T00:19:33.782Z,100654.37
2023-05-19T00:19:55.565Z,100656.42
2023-05-19T00:20:17.764Z,100655.85
2023-05-19T00:20:39.980Z,100657.66
2023-05-19T00:21:01.967Z,100657.73
2023-05-19T00:21:23.932Z,100660.04
2023-05-19T00:21:45.747Z,100657.69
2023-05-19T00:22:07.507Z,100661.10
2023-05-19T00:22:29.280Z,100659.66
2023-05-19T00:22:51.697Z,100658.53
2023-05-19T00:23:13.405Z,100656.93
2023-05-19T00:23:35.249Z,100655.95
2023-05-19T00:23:57.142Z,100657.14
2023-05-19T00:24:18.935Z,100661.05
2023-05-19T00:24:40.807Z,100659.70
2023-05-19T00:25:03.006Z,100659.33
2023-05-19T00:25:25.197Z,100664.89
2023-05-19T00:25:46.981Z,100663.48
2023-05-19T00:26:08.868Z,100664.19
2023-05-19T00:26:30.797Z,100665.42
2023-05-19T00:26:57.940Z,100663.69
2023-05-19T00:27:19.772Z,100666.73
2023-05-19T00:27:41.556Z,100664.56
2023-05-19T00:28:03.417Z,100665.09
2023-05-19T00:28:25.158Z,100661.21
2023-05-19T00:28:47.702Z,100664.92
2023-05-19T00:29:09.591Z,100664.59
2023-05-19T00:29:31.474Z,100665.27
2023-05-19T00:29:53.262Z,100664.42
2023-05-19T00:30:15.455Z,100663.39
2023-05-19T00:30:37.335Z,100664.98
2023-05-19T00:31:01.222Z,100665.77
2023-05-19T00:31:23.046Z,100666.17
2023-05-19T00:31:44.987Z,100662.67
2023-05-19T00:32:07.132Z,100665.02
2023-05-19T00:32:29.051Z,100667.43
2023-05-19T00:32:51.420Z,100662.61
2023-05-19T00:33:13.453Z,100663.38
2023-05-19T00:33:35.602Z,100666.12
2023-05-19T00:33:57.693Z,100666.42
2023-05-19T00:34:20.604Z,100666.82
2023-05-19T00:34:43.011Z,100667.55
2023-05-19T00:35:05.096Z,100668.55
2023-05-19T00:35:27.081Z,100666.80
2023-05-19T00:35:48.870Z,100671.71
2023-05-19T00:36:10.779Z,100667.94
2023-05-19T00:36:32.530Z,100668.52
2023-05-19T00:36:54.255Z,100671.17
2023-05-19T00:37:16.208Z,100670.50
2023-05-19T00:37:38.092Z,100666.91
2023-05-19T00:37:59.823Z,100669.40
2023-05-19T00:38:21.769Z,100670.27
2023-05-19T00:38:43.653Z,100668.41
2023-05-19T00:39:05.547Z,100670.36
2023-05-19T00:39:27.428Z,100668.38
2023-05-19T00:39:49.539Z,100670.27
2023-05-19T00:40:11.567Z,100666.49
2023-05-19T00:40:35.008Z,100668.61
2023-05-19T00:40:57.021Z,100669.61
2023-05-19T00:41:18.868Z,100666.00
2023-05-19T00:41:40.719Z,100666.36
2023-05-19T00:42:03.088Z,100668.05
2023-05-19T00:42:24.976Z,100669.13
2023-05-19T00:42:46.861Z,100667.35
2023-05-19T00:43:08.687Z,100670.34
2023-05-19T00:43:30.737Z,100665.48
2023-05-19T00:43:52.632Z,100669.59
2023-05-19T00:44:14.510Z,100670.96
2023-05-19T00:44:38.075Z,100671.96
2023-05-19T00:44:59.847Z,100673.56
2023-05-19T00:45:21.914Z,100671.59
2023-05-19T00:45:43.717Z,100669.94
2023-05-19T00:46:05.685Z,100672.29
2023-05-19T00:46:27.494Z,100672.09
2023-05-19T00:46:49.401Z,100671.75
2023-05-19T00:47:11.272Z,100671.30
2023-05-19T00:47:33.349Z,100672.36
2023-05-19T00:47:55.270Z,100669.02
2023-05-19T00:48:17.143Z,100670.60
2023-05-19T00:48:39.222Z,100672.70
2023-05-19T00:49:00.940Z,100671.02
2023-05-19T00:49:22.768Z,100672.89
2023-05-19T00:49:45.274Z,100671.36
2023-05-19T00:50:07.287Z,100673.97
2023-05-19T00:50:29.181Z,100671.30
2023-05-19T00:50:51.170Z,100672.09
2023-05-19T00:51:14.891Z,100673.70
2023-05-19T00:51:37.473Z,100673.09
2023-05-19T00:52:00.084Z,100673.48
2023-05-19T00:52:21.953Z,100675.54
2023-05-19T00:52:43.704Z,100674.15
2023-05-19T00:53:05.726Z,100671.77
2023-05-19T00:53:27.632Z,100673.13
2023-05-19T00:53:51.200Z,100672.48
2023-05-19T00:54:12.954Z,100672.15
2023-05-19T00:54:34.916Z,100671.48
2023-05-19T00:54:57.305Z,100673.66
2023-05-19T00:55:19.537Z,100671.44
2023-05-19T00:55:41.285Z,100673.44
2023-05-19T00:56:03.196Z,100677.10
2023-05-19T00:56:25.161Z,100673.02
2023-05-19T00:56:46.948Z,100673.70
2023-05-19T00:57:08.707Z,100674.55
2023-05-19T00:57:30.720Z,100676.81
2023-05-19T00:57:52.445Z,100676.40
2023-05-19T00:58:14.204Z,100675.23
2023-05-19T00:58:36.108Z,100675.73
2023-05-19T00:58:58.800Z,100677.98
2023-05-19T00:59:20.871Z,100674.37
2023-05-19T00:59:42.682Z,100674.94
2023-05-19T01:00:05.847Z,100677.60
2023-05-19T01:00:27.755Z,100677.98
2023-05-19T01:00:50.855Z,100680.08
2023-05-19T01:01:14.888Z,100675.09
2023-05-19T01:01:37.142Z,100677.64
2023-05-19T01:01:59.206Z,100674.14
2023-05-19T01:02:21.755Z,100675.59
2023-05-19T01:02:43.720Z,100673.73
2023-05-19T01:03:11.703Z,100673.10
2023-05-19T01:03:35.863Z,100673.63
2023-05-19T01:03:59.289Z,100675.85
2023-05-19T01:04:22.066Z,100674.70
2023-05-19T01:04:44.081Z,100675.30
2023-05-19T01:05:06.913Z,100672.23
2023-05-19T01:05:28.759Z,100674.10
2023-05-19T01:05:53.885Z,100673.10
2023-05-19T01:06:15.825Z,100675.80
2023-05-19T01:06:38.914Z,100672.91
2023-05-19T01:07:00.747Z,100674.76
2023-05-19T01:07:23.463Z,100672.37
2023-05-19T01:07:47.233Z,100674.28
2023-05-19T01:08:09.423Z,100668.63
2023-05-19T01:08:32.337Z,100670.02
2023-05-19T01:08:54.100Z,100668.56
2023-05-19T01:09:16.929Z,100670.67
2023-05-19T01:09:38.813Z,100668.78
2023-05-19T01:10:03.082Z,100671.41
2023-05-19T01:10:24.830Z,100668.40
2023-05-19T01:10:46.720Z,100667.80
2023-05-19T01:11:08.622Z,100669.20
2023-05-19T01:11:30.729Z,100669.88
2023-05-19T01:11:54.020Z,100667.51
2023-05-19T01:12:16.052Z,100669.60
2023-05-19T01:12:38.004Z,100672.27
2023-05-19T01:12:59.881Z,100670.69
2023-05-19T01:13:21.699Z,100669.16
2023-05-19T01:13:43.557Z,100666.46
2023-05-19T01:14:05.442Z,100665.17
2023-05-19T01:14:27.432Z,100667.46
2023-05-19T01:14:49.199Z,100665.15
2023-05-19T01:15:11.614Z,100664.89
2023-05-19T01:15:34.057Z,100665.63
2023-05-19T01:16:07.157Z,100666.05
2023-05-19T01:16:34.983Z,100665.52
2023-05-19T01:17:10.412Z,100664.36
2023-05-19T01:17:34.640Z,100664.54
2023-05-19T01:18:07.588Z,100664.39
2023-05-19T01:18:32.592Z,100661.48
2023-05-19T01:19:04.527Z,100660.84
2023-05-19T01:19:47.149Z,100661.36
2023-05-19T01:20:16.289Z,100662.83
2023-05-19T01:20:39.925Z,100660.61
2023-05-19T01:21:07.536Z,100664.51
2023-05-19T01:21:49.550Z,100661.41
2023-05-19T01:22:31.062Z,100660.15
2023-05-19T01:23:17.020Z,100661.84
2023-05-19T01:23:47.826Z,100660.09
2023-05-19T01:24:15.612Z,100662.21
2023-05-19T01:24:45.784Z,100658.72
2023-05-19T01:25:13.338Z,100660.77
2023-05-19T01:25:47.278Z,100662.50
2023-05-19T01:26:16.400Z,100658.49
2023-05-19T01:26:57.219Z,100659.15
2023-05-19T01:27:28.306Z,100658.29
2023-05-19T01:27:50.113Z,100658.99
2023-05-19T01:28:30.583Z,100658.23
2023-05-19T01:29:11.219Z,100659.96
2023-05-19T01:29:35.938Z,100658.52
2023-05-19T01:30:09.895Z,100659.63
2023-05-19T01:30:38.123Z,100657.97
2023-05-19T01:31:00.159Z,100660.39
2023-05-19T01:31:23.998Z,100662.27
2023-05-19T01:31:48.178Z,100660.19
2023-05-19T01:32:10.294Z,100661.21
2023-05-19T01:32:32.204Z,100660.49
2023-05-19T01:32:55.130Z,100657.67
2023-05-19T01:33:18.574Z,100659.75
2023-05-19T01:33:40.578Z,100661.84
2023-05-19T01:34:04.757Z,100660.98
2023-05-19T01:34:26.769Z,100662.05
2023-05-19T01:34:49.353Z,100661.63
2023-05-19T01:35:11.355Z,100661.44
2023-05-19T01:35:33.595Z,100665.73
2023-05-19T01:35:55.649Z,100664.09
2023-05-19T01:36:19.761Z,100664.64
2023-05-19T01:36:41.810Z,100667.80
2023-05-19T01:37:03.688Z,100665.06
2023-05-19T01:37:25.885Z,100666.23
2023-05-19T01:37:47.677Z,100667.86
2023-05-19T01:38:10.036Z,100667.14
2023-05-19T01:38:31.963Z,100667.33
2023-05-19T01:38:54.772Z,100668.02
2023-05-19T01:39:16.663Z,100669.80
2023-05-19T01:39:38.568Z,100669.04
2023-05-19T01:40:00.775Z,100670.66
2023-05-19T01:40:23.130Z,100669.91
2023-05-19T01:40:46.154Z,100669.60
2023-05-19T01:41:08.135Z,100670.27
2023-05-19T01:41:30.022Z,100666.02
2023-05-19T01:41:51.805Z,100669.91
2023-05-19T01:42:13.693Z,100666.55
2023-05-19T01:42:38.048Z,100668.84
2023-05-19T01:43:00.812Z,100667.05
2023-05-19T01:43:22.929Z,100667.77
2023-05-19T01:43:44.821Z,100664.20
2023-05-19T01:44:06.609Z,100669.02
2023-05-19T01:44:29.000Z,100670.55
2023-05-19T01:44:51.435Z,100665.96
2023-05-19T01:45:13.326Z,100667.75
2023-05-19T01:45:36.228Z,100672.75
2023-05-19T01:45:59.103Z,100670.35
2023-05-19T01:46:21.589Z,100674.23
2023-05-19T01:46:43.492Z,100671.17
2023-05-19T01:47:05.621Z,100670.29
2023-05-19T01:47:27.497Z,100670.27
2023-05-19T01:47:54.135Z,100670.12
2023-05-19T01:48:16.469Z,100673.67
2023-05-19T01:48:40.398Z,100672.91
2023-05-19T01:49:02.143Z,100673.14
2023-05-19T01:49:24.065Z,100673.77
2023-05-19T01:49:45.954Z,100672.11
2023-05-19T01:50:08.150Z,100674.80
2023-05-19T01:50:30.141Z,100672.09
2023-05-19T01:50:52.362Z,100671.52
2023-05-19T01:51:14.217Z,100674.10
2023-05-19T01:51:37.734Z,100674.91
2023-05-19T01:52:00.467Z,100674.20
2023-05-19T01:52:22.561Z,100676.13
2023-05-19T01:52:44.532Z,100674.73
2023-05-19T01:53:06.307Z,100672.04
2023-05-19T01:53:29.562Z,100672.48
2023-05-19T01:53:51.545Z,100674.58
2023-05-19T01:54:13.517Z,100673.77
2023-05-19T01:54:35.415Z,100674.55
2023-05-19T01:54:57.151Z,100674.49
2023-05-19T01:55:19.278Z,100674.52
2023-05-19T01:55:45.343Z,100673.91
2023-05-19T01:56:07.438Z,100675.77
2023-05-19T01:56:34.582Z,100673.89
2023-05-19T01:57:14.512Z,100672.58
2023-05-19T01:57:51.968Z,100672.67
2023-05-19T01:58:16.962Z,100675.77
2023-05-19T01:58:46.096Z,100672.44
2023-05-19T01:59:15.783Z,100672.30
2023-05-19T01:59:42.144Z,100672.02
2023-05-19T02:00:05.871Z,100671.83
2023-05-19T02:00:34.719Z,100676.27
2023-05-19T02:01:08.638Z,100675.52
2023-05-19T02:01:33.407Z,100675.52
2023-05-19T02:01:56.731Z,100672.98
2023-05-19T02:02:34.360Z,100674.72
2023-05-19T02:03:08.437Z,100676.50
2023-05-19T02:03:30.493Z,100675.59
2023-05-19T02:04:11.053Z,100677.92
2023-05-19T02:04:44.281Z,100679.73
2023-05-19T02:05:18.718Z,100682.75
2023-05-19T02:05:40.585Z,100678.99
2023-05-19T02:06:02.581Z,100682.45
2023-05-19T02:06:33.562Z,100682.55
2023-05-19T02:07:01.748Z,100687.96
2023-05-19T02:07:27.608Z,100687.20
2023-05-19T02:07:52.529Z,100686.40
2023-05-19T02:08:16.962Z,100687.95
2023-05-19T02:08:38.856Z,100688.80
2023-05-19T02:09:04.037Z,100691.54
2023-05-19T02:09:42.873Z,100692.35
2023-05-19T02:10:05.576Z,100690.19
2023-05-19T02:10:28.179Z,100692.44
2023-05-19T02:10:51.194Z,100692.52
2023-05-19T02:11:21.826Z,100693.33
2023-05-19T02:11:47.450Z,100691.92
2023-05-19T02:12:16.796Z,100693.40
2023-05-19T02:12:40.408Z,100692.10
2023-05-19T02:13:04.496Z,100695.38
2023-05-19T02:13:29.001Z,100693.23
2023-05-19T02:13:51.525Z,100689.80
2023-05-19T02:14:18.311Z,100688.60
2023-05-19T02:14:50.263Z,100692.73
2023-05-19T02:15:16.080Z,100695.40
2023-05-19T02:15:42.361Z,100694.06
2023-05-19T02:16:04.994Z,100696.55
2023-05-19T02:16:27.830Z,100696.20
2023-05-19T02:16:50.176Z,100693.64
2023-05-19T02:17:13.292Z,100693.04
2023-05-19T02:17:40.367Z,100694.34
2023-05-19T02:18:04.727Z,100693.41
2023-05-19T02:18:30.210Z,100693.19
2023-05-19T02:18:54.099Z,100691.34
2023-05-19T02:19:26.041Z,100695.60
2023-05-19T02:19:50.583Z,100691.45
2023-05-19T02:20:12.470Z,100694.34
2023-05-19T02:20:34.742Z,100694.95
2023-05-19T02:20:56.741Z,100695.27
2023-05-19T02:21:19.673Z,100693.15
2023-05-19T02:21:41.557Z,100695.64
2023-05-19T02:22:03.479Z,100695.14
2023-05-19T02:22:25.474Z,100698.52
2023-05-19T02:22:47.341Z,100695.85
2023-05-19T02:23:09.200Z,100698.38
2023-05-19T02:23:31.304Z,100698.57
2023-05-19T02:23:53.076Z,100695.02
2023-05-19T02:24:14.962Z,100700.54
2023-05-19T02:24:37.797Z,100694.89
2023-05-19T02:24:59.659Z,100700.29
2023-05-19T02:25:21.953Z,100698.42
2023-05-19T02:25:43.940Z,100696.25
2023-05-19T02:26:06.241Z,100697.69
2023-05-19T02:26:28.342Z,100697.85
2023-05-19T02:26:50.619Z,100698.91
2023-05-19T02:27:13.796Z,100698.71
2023-05-19T02:27:36.660Z,100698.05
2023-05-19T02:27:58.624Z,100694.89
2023-05-19T02:28:20.526Z,100700.73
2023-05-19T02:28:42.263Z,100697.02
2023-05-19T02:29:03.995Z,100697.02
2023-05-19T02:29:26.083Z,100697.23
2023-05-19T02:29:47.808Z,100698.40
2023-05-19T02:30:09.966Z,100701.08
2023-05-19T02:30:32.528Z,100700.42
2023-05-19T02:30:55.575Z,100700.64
2023-05-19T02:31:17.508Z,100701.54
2023-05-19T02:31:39.602Z,100702.80
2023-05-19T02:32:02.337Z,100702.35
2023-05-19T02:32:24.449Z,100702.06
2023-05-19T02:32:46.968Z,100702.63
2023-05-19T02:33:08.866Z,100703.19
2023-05-19T02:33:31.750Z,100704.62
2023-05-19T02:33:53.528Z,100702.02
2023-05-19T02:34:15.622Z,100700.69
2023-05-19T02:34:37.726Z,100706.02
2023-05-19T02:35:00.181Z,100700.69
2023-05-19T02:35:22.620Z,100702.31
2023-05-19T02:35:44.506Z,100704.95
2023-05-19T02:36:06.757Z,100706.39
2023-05-19T02:36:28.611Z,100702.12
2023-05-19T02:36:50.900Z,100705.83
2023-05-19T02:37:13.987Z,100704.79
2023-05-19T02:37:35.907Z,100704.92
2023-05-19T02:37:57.726Z,100704.79
2023-05-19T02:38:21.629Z,100701.63
2023-05-19T02:38:43.368Z,100701.59
2023-05-19T02:39:05.278Z,100704.25
2023-05-19T02:39:29.260Z,100703.05
2023-05-19T02:39:51.489Z,100704.88
2023-05-19T02:40:13.294Z,100703.89
2023-05-19T02:40:35.078Z,100700.64
2023-05-19T02:40:57.150Z,100700.45
2023-05-19T02:41:19.094Z,100703.83
2023-05-19T02:41:41.067Z,100703.09
2023-05-19T02:42:04.345Z,100707.36
2023-05-19T02:42:26.157Z,100705.69
2023-05-19T02:42:48.034Z,100703.55
2023-05-19T02:43:09.903Z,100704.45
2023-05-19T02:43:32.211Z,100703.34
2023-05-19T02:43:54.052Z,100706.91
2023-05-19T02:44:15.824Z,100707.91
2023-05-19T02:44:37.756Z,100707.74
2023-05-19T02:45:00.292Z,100709.11
2023-05-19T02:45:22.261Z,100706.61
2023-05-19T02:45:44.239Z,100708.38
2023-05-19T02:46:06.227Z,100708.88
2023-05-19T02:46:28.329Z,100709.02
2023-05-19T02:46:50.437Z,100710.98
2023-05-19T02:47:13.217Z,100711.61
2023-05-19T02:47:37.018Z,100709.10
2023-05-19T02:47:59.632Z,100708.66
2023-05-19T02:48:21.637Z,100710.64
2023-05-19T02:48:43.522Z,100712.03
2023-05-19T02:49:05.633Z,100710.02
2023-05-19T02:49:27.572Z,100708.76
2023-05-19T02:49:49.698Z,100709.98
2023-05-19T02:50:11.611Z,100709.63
2023-05-19T02:50:33.488Z,100711.73
2023-05-19T02:50:55.774Z,100708.16
2023-05-19T02:51:17.751Z,100711.98
2023-05-19T02:51:39.499Z,100706.37
2023-05-19T02:52:04.957Z,100706.55
2023-05-19T02:52:26.890Z,100707.02
2023-05-19T02:52:48.673Z,100704.33
2023-05-19T02:53:10.563Z,100707.41
2023-05-19T02:53:32.449Z,100705.17
2023-05-19T02:53:54.336Z,100704.98
2023-05-19T02:54:16.119Z,100705.85
2023-05-19T02:54:37.866Z,100705.41
2023-05-19T02:54:59.685Z,100708.52
2023-05-19T02:55:21.414Z,100710.73
2023-05-19T02:55:43.136Z,100709.05
2023-05-19T02:56:04.867Z,100709.17
2023-05-19T02:56:28.303Z,100705.37
2023-05-19T02:56:50.251Z,100709.02
2023-05-19T02:57:12.128Z,100707.48
2023-05-19T02:57:34.942Z,100708.74
2023-05-19T02:57:56.943Z,100711.10
2023-05-19T02:58:18.878Z,100709.76
2023-05-19T02:58:43.359Z,100707.80
2023-05-19T02:59:06.504Z,100707.40
2023-05-19T02:59:28.362Z,100707.58
2023-05-19T02:59:50.274Z,100709.84
2023-05-19T03:00:12.476Z,100707.81
2023-05-19T03:00:34.413Z,100709.13
2023-05-19T03:00:56.790Z,100707.42
2023-05-19T03:01:18.858Z,100706.48
2023-05-19T03:01:40.881Z,100706.33
2023-05-19T03:02:03.081Z,100708.56
2023-05-19T03:02:25.104Z,100710.05
2023-05-19T03:02:47.269Z,100710.69
2023-05-19T03:03:10.562Z,100712.67
2023-05-19T03:03:33.178Z,100711.30
2023-05-19T03:03:55.169Z,100711.96
2023-05-19T03:04:20.200Z,100710.95
2023-05-19T03:04:43.117Z,100712.21
2023-05-19T03:05:05.509Z,100712.95
2023-05-19T03:05:27.450Z,100713.14
2023-05-19T03:05:49.438Z,100714.44
2023-05-19T03:06:11.428Z,100713.63
2023-05-19T03:06:33.179Z,100714.56
2023-05-19T03:06:55.100Z,100711.19
2023-05-19T03:07:17.120Z,100715.36
2023-05-19T03:07:38.942Z,100714.38
2023-05-19T03:08:00.766Z,100712.67
2023-05-19T03:08:22.863Z,100715.43
2023-05-19T03:08:45.256Z,100713.88
2023-05-19T03:09:07.394Z,100712.48
2023-05-19T03:09:29.227Z,100714.11
2023-05-19T03:09:51.172Z,100712.60
2023-05-19T03:10:12.952Z,100711.95
2023-05-19T03:10:35.199Z,100708.17
2023-05-19T03:10:57.416Z,100713.38
2023-05-19T03:11:19.376Z,100704.35
2023-05-19T03:11:41.366Z,100709.91
2023-05-19T03:12:04.729Z,100706.92
2023-05-19T03:12:26.533Z,100708.02
2023-05-19T03:12:48.457Z,100707.21
2023-05-19T03:13:10.343Z,100708.66
2023-05-19T03:13:32.435Z,100708.35
2023-05-19T03:13:54.212Z,100709.96
2023-05-19T03:14:15.955Z,100710.35
2023-05-19T03:14:38.820Z,100711.57
2023-05-19T03:15:01.312Z,100711.97
2023-05-19T03:15:23.612Z,100711.55
2023-05-19T03:15:45.492Z,100711.04
2023-05-19T03:16:08.365Z,100711.05
2023-05-19T03:16:30.715Z,100714.61
2023-05-19T03:16:53.035Z,100712.89
2023-05-19T03:17:15.392Z,100714.98
2023-05-19T03:17:37.385Z,100715.26
2023-05-19T03:17:59.559Z,100714.04
2023-05-19T03:18:21.620Z,100715.62
2023-05-19T03:18:43.493Z,100714.90
2023-05-19T03:19:05.442Z,100716.49
2023-05-19T03:19:27.871Z,100715.20
2023-05-19T03:19:49.754Z,100716.28
2023-05-19T03:20:12.028Z,100716.18
2023-05-19T03:20:34.123Z,100716.58
2023-05-19T03:20:56.729Z,100718.90
2023-05-19T03:21:18.631Z,100718.13
2023-05-19T03:21:40.897Z,100717.91
2023-05-19T03:22:02.653Z,100714.77
2023-05-19T03:22:24.714Z,100719.04
2023-05-19T03:22:46.505Z,100716.84
2023-05-19T03:23:09.382Z,100716.69
2023-05-19T03:23:31.141Z,100715.93
2023-05-19T03:23:53.240Z,100718.31
2023-05-19T03:24:16.459Z,100718.17
2023-05-19T03:24:38.254Z,100718.80
2023-05-19T03:25:00.039Z,100716.47
2023-05-19T03:25:22.127Z,100717.19
2023-05-19T03:25:43.857Z,100718.64
2023-05-19T03:26:06.353Z,100717.89
2023-05-19T03:26:29.540Z,100718.77
2023-05-19T03:26:52.020Z,100718.60
2023-05-19T03:27:14.626Z,100720.20
2023-05-19T03:27:36.517Z,100717.87
2023-05-19T03:27:58.601Z,100720.40
2023-05-19T03:28:20.644Z,100716.98
2023-05-19T03:28:42.824Z,100716.88
2023-05-19T03:29:04.593Z,100718.27
2023-05-19T03:29:27.111Z,100714.20
2023-05-19T03:29:49.364Z,100720.08
2023-05-19T03:30:11.971Z,100718.11
2023-05-19T03:30:44.813Z,100718.79
2023-05-19T03:31:09.720Z,100720.56
2023-05-19T03:31:33.484Z,100716.81
2023-05-19T03:31:55.572Z,100717.23
2023-05-19T03:32:17.399Z,100715.94
2023-05-19T03:32:40.355Z,100716.27
2023-05-19T03:33:03.170Z,100719.04
2023-05-19T03:33:25.270Z,100718.18
2023-05-19T03:33:47.666Z,100718.10
2023-05-19T03:34:09.582Z,100721.73
2023-05-19T03:34:32.900Z,100717.88
2023-05-19T03:34:54.824Z,100720.34
2023-05-19T03:35:16.879Z,100719.23
2023-05-19T03:35:38.838Z,100716.19
2023-05-19T03:36:00.630Z,100716.21
2023-05-19T03:36:23.437Z,100719.48
2023-05-19T03:36:45.157Z,100719.51
2023-05-19T03:37:10.997Z,100720.95
2023-05-19T03:37:33.699Z,100719.20
2023-05-19T03:37:55.636Z,100716.23
2023-05-19T03:38:17.571Z,100714.35
2023-05-19T03:38:45.623Z,100714.41
2023-05-19T03:39:07.421Z,100716.07
2023-05-19T03:39:29.375Z,100716.15
2023-05-19T03:39:51.355Z,100716.25
2023-05-19T03:40:13.655Z,100718.80
2023-05-19T03:40:36.969Z,100714.27
2023-05-19T03:41:01.310Z,100713.99
2023-05-19T03:41:23.094Z,100714.08
2023-05-19T03:41:44.940Z,100714.54
2023-05-19T03:42:06.877Z,100716.03
2023-05-19T03:42:28.867Z,100713.73
2023-05-19T03:42:50.949Z,100716.03
2023-05-19T03:43:13.450Z,100716.00
2023-05-19T03:43:40.758Z,100715.80
2023-05-19T03:44:02.850Z,100716.98
2023-05-19T03:44:24.941Z,100718.09
2023-05-19T03:44:47.294Z,100717.63
2023-05-19T03:45:09.672Z,100715.64
2023-05-19T03:45:31.661Z,100717.70
2023-05-19T03:45:54.070Z,100717.73
2023-05-19T03:46:34.844Z,100716.73
2023-05-19T03:47:15.541Z,100719.91
2023-05-19T03:47:37.502Z,100719.73
2023-05-19T03:48:11.529Z,100721.85
2023-05-19T03:48:52.398Z,100723.93
2023-05-19T03:49:22.664Z,100724.65
2023-05-19T03:50:03.072Z,100722.64
2023-05-19T03:50:45.707Z,100722.04
2023-05-19T03:51:12.392Z,100722.21
2023-05-19T03:51:35.221Z,100718.88
2023-05-19T03:52:17.661Z,100719.52
2023-05-19T03:53:02.350Z,100721.02
2023-05-19T03:53:26.974Z,100721.58
2023-05-19T03:53:49.088Z,100717.70
2023-05-19T03:54:10.919Z,100719.56
2023-05-19T03:54:32.863Z,100721.00
2023-05-19T03:54:54.675Z,100720.89
2023-05-19T03:55:16.640Z,100720.20
2023-05-19T03:55:39.040Z,100719.77
2023-05-19T03:56:01.351Z,100719.58
2023-05-19T03:56:25.255Z,100720.90
2023-05-19T03:56:47.194Z,100721.19
2023-05-19T03:57:10.190Z,100720.20
2023-05-19T03:57:32.355Z,100718.92
2023-05-19T03:57:54.140Z,100715.01
2023-05-19T03:58:16.076Z,100720.27
2023-05-19T03:58:40.928Z,100721.30
2023-05-19T03:59:02.681Z,100721.14
2023-05-19T03:59:24.516Z,100721.42
2023-05-19T03:59:46.433Z,100717.23
2023-05-19T04:00:11.391Z,100720.66
2023-05-19T04:00:36.084Z,100719.88
2023-05-19T04:00:58.018Z,100717.48
2023-05-19T04:01:19.912Z,100722.21
2023-05-19T04:01:41.933Z,100717.80
2023-05-19T04:02:03.799Z,100717.92
2023-05-19T04:02:25.956Z,100715.13
2023-05-19T04:02:47.926Z,100716.66
2023-05-19T04:03:09.978Z,100716.34
2023-05-19T04:03:32.008Z,100716.67
2023-05-19T04:03:54.041Z,100714.08
2023-05-19T04:04:15.859Z,100711.89
2023-05-19T04:04:38.433Z,100712.15
2023-05-19T04:05:00.327Z,100716.52
2023-05-19T04:05:22.210Z,100716.63
2023-05-19T04:05:44.191Z,100714.06
2023-05-19T04:06:06.695Z,100716.08
2023-05-19T04:06:28.580Z,100715.14
2023-05-19T04:06:50.466Z,100716.13
2023-05-19T04:07:12.756Z,100715.14
2023-05-19T04:07:34.502Z,100714.38
2023-05-19T04:07:57.455Z,100715.20
2023-05-19T04:08:19.448Z,100715.83
2023-05-19T04:08:41.741Z,100712.73
2023-05-19T04:09:05.196Z,100714.31
2023-05-19T04:09:27.252Z,100715.95
2023-05-19T04:09:51.051Z,100713.77
2023-05-19T04:10:12.884Z,100715.14
2023-05-19T04:10:34.691Z,100709.36
2023-05-19T04:10:56.943Z,100715.11
2023-05-19T04:11:20.301Z,100713.64
2023-05-19T04:11:42.574Z,100711.23
2023-05-19T04:12:04.781Z,100715.20
2023-05-19T04:12:26.551Z,100716.40
2023-05-19T04:12:48.309Z,100716.09
2023-05-19T04:13:11.694Z,100713.52
2023-05-19T04:13:33.889Z,100714.14
2023-05-19T04:13:55.929Z,100716.20
2023-05-19T04:14:17.718Z,100717.41
2023-05-19T04:14:39.595Z,100718.54
2023-05-19T04:15:01.486Z,100719.02
2023-05-19T04:15:23.246Z,100719.45
2023-05-19T04:15:45.895Z,100716.15
2023-05-19T04:16:08.057Z,100718.52
2023-05-19T04:16:30.031Z,100717.61
2023-05-19T04:16:52.449Z,100715.21
2023-05-19T04:17:14.344Z,100717.05
2023-05-19T04:17:36.265Z,100717.63
2023-05-19T04:17:58.257Z,100715.23
2023-05-19T04:18:20.129Z,100718.52
2023-05-19T04:18:42.739Z,100719.33
2023-05-19T04:19:04.869Z,100718.58
2023-05-19T04:19:26.858Z,100717.64
2023-05-19T04:19:50.617Z,100717.81
2023-05-19T04:20:12.583Z,100719.55
2023-05-19T04:20:34.412Z,100714.67
2023-05-19T04:20:56.684Z,100719.23
2023-05-19T04:21:18.521Z,100719.48
2023-05-19T04:21:40.776Z,100718.83
2023-05-19T04:22:02.489Z,100716.89
2023-05-19T04:22:24.764Z,100716.86
2023-05-19T04:22:46.502Z,100713.48
2023-05-19T04:23:08.995Z,100715.70
2023-05-19T04:23:30.913Z,100714.18
2023-05-19T04:23:53.077Z,100714.55
2023-05-19T04:24:14.848Z,100714.23
2023-05-19T04:24:36.981Z,100714.11
2023-05-19T04:24:59.482Z,100718.34
2023-05-19T04:25:21.574Z,100718.88
2023-05-19T04:25:43.557Z,100716.33
2023-05-19T04:26:06.929Z,100715.83
2023-05-19T04:26:31.252Z,100715.36
2023-05-19T04:26:53.452Z,100715.36